sensor_id;sensor_type;location;lat;lon;timestamp;temperature;humidity
18703;DHT22;9481;48.796;9.210;2022-12-07T00:01:29;10.10;53.10
18703;DHT22;9481;48.796;9.210;2022-12-07T00:03:58;10.10;53.10
18703;DHT22;9481;48.796;9.210;2022-12-07T00:06:33;10.10;53.00
18703;DHT22;9481;48.796;9.210;2022-12-07T00:09:01;10.10;52.90
18703;DHT22;9481;48.796;9.210;2022-12-07T00:11:27;10.10;52.90
18703;DHT22;9481;48.796;9.210;2022-12-07T00:13:56;10.10;52.90
18703;DHT22;9481;48.796;9.210;2022-12-07T00:16:25;10.10;52.80
18703;DHT22;9481;48.796;9.210;2022-12-07T00:18:53;10.10;52.70
18703;DHT22;9481;48.796;9.210;2022-12-07T00:21:22;10.10;52.70
18703;DHT22;9481;48.796;9.210;2022-12-07T00:23:51;10.10;52.70
18703;DHT22;9481;48.796;9.210;2022-12-07T00:26:28;10.10;52.60
18703;DHT22;9481;48.796;9.210;2022-12-07T00:28:57;10.10;52.80
18703;DHT22;9481;48.796;9.210;2022-12-07T00:31:37;10.10;52.70
18703;DHT22;9481;48.796;9.210;2022-12-07T00:34:05;10.10;52.70
18703;DHT22;9481;48.796;9.210;2022-12-07T00:36:31;10.10;53.40
18703;DHT22;9481;48.796;9.210;2022-12-07T00:39:01;10.10;52.60
18703;DHT22;9481;48.796;9.210;2022-12-07T00:41:28;10.10;52.70
18703;DHT22;9481;48.796;9.210;2022-12-07T00:44:14;10.10;52.60
18703;DHT22;9481;48.796;9.210;2022-12-07T00:46:40;10.10;52.60
18703;DHT22;9481;48.796;9.210;2022-12-07T00:49:05;10.10;52.60
18703;DHT22;9481;48.796;9.210;2022-12-07T00:51:34;10.10;52.60
18703;DHT22;9481;48.796;9.210;2022-12-07T00:54:03;10.10;52.50
18703;DHT22;9481;48.796;9.210;2022-12-07T00:56:31;10.10;52.50
18703;DHT22;9481;48.796;9.210;2022-12-07T00:59:04;10.10;52.40
18703;DHT22;9481;48.796;9.210;2022-12-07T01:01:32;10.10;52.40
18703;DHT22;9481;48.796;9.210;2022-12-07T01:04:00;10.10;52.60
18703;DHT22;9481;48.796;9.210;2022-12-07T01:06:29;10.10;52.40
18703;DHT22;9481;48.796;9.210;2022-12-07T01:08:55;10.10;52.30
18703;DHT22;9481;48.796;9.210;2022-12-07T01:11:24;10.10;52.40
18703;DHT22;9481;48.796;9.210;2022-12-07T01:13:53;10.10;52.30
18703;DHT22;9481;48.796;9.210;2022-12-07T01:16:22;10.10;52.20
18703;DHT22;9481;48.796;9.210;2022-12-07T01:18:51;10.10;52.10
18703;DHT22;9481;48.796;9.210;2022-12-07T01:21:27;10.00;52.00
18703;DHT22;9481;48.796;9.210;2022-12-07T01:23:57;10.00;51.90
18703;DHT22;9481;48.796;9.210;2022-12-07T01:26:24;10.00;51.90
18703;DHT22;9481;48.796;9.210;2022-12-07T01:28:51;10.00;51.90
18703;DHT22;9481;48.796;9.210;2022-12-07T01:31:21;10.00;51.90
18703;DHT22;9481;48.796;9.210;2022-12-07T01:33:51;10.00;51.90
18703;DHT22;9481;48.796;9.210;2022-12-07T01:36:22;10.00;51.90
18703;DHT22;9481;48.796;9.210;2022-12-07T01:38:54;10.00;51.90
18703;DHT22;9481;48.796;9.210;2022-12-07T01:41:23;10.00;51.80
18703;DHT22;9481;48.796;9.210;2022-12-07T01:44:17;10.00;51.80
18703;DHT22;9481;48.796;9.210;2022-12-07T01:49:45;10.00;51.70
18703;DHT22;9481;48.796;9.210;2022-12-07T01:52:21;10.00;51.60
18703;DHT22;9481;48.796;9.210;2022-12-07T01:54:53;10.00;51.60
18703;DHT22;9481;48.796;9.210;2022-12-07T01:57:21;10.00;51.70
18703;DHT22;9481;48.796;9.210;2022-12-07T01:59:49;9.90;52.40
18703;DHT22;9481;48.796;9.210;2022-12-07T02:02:37;10.00;51.70
18703;DHT22;9481;48.796;9.210;2022-12-07T02:05:09;10.00;51.60
18703;DHT22;9481;48.796;9.210;2022-12-07T02:07:37;9.90;52.50
18703;DHT22;9481;48.796;9.210;2022-12-07T02:10:18;9.90;52.50
18703;DHT22;9481;48.796;9.210;2022-12-07T02:12:51;10.00;51.60
18703;DHT22;9481;48.796;9.210;2022-12-07T02:15:23;9.90;52.50
18703;DHT22;9481;48.796;9.210;2022-12-07T02:18:09;9.90;52.50
18703;DHT22;9481;48.796;9.210;2022-12-07T02:24:14;9.90;52.60
18703;DHT22;9481;48.796;9.210;2022-12-07T02:29:57;9.90;52.60
18703;DHT22;9481;48.796;9.210;2022-12-07T02:32:57;9.80;52.60
18703;DHT22;9481;48.796;9.210;2022-12-07T02:38:55;9.80;52.50
18703;DHT22;9481;48.796;9.210;2022-12-07T02:41:32;9.80;52.60
18703;DHT22;9481;48.796;9.210;2022-12-07T02:44:07;9.80;53.30
18703;DHT22;9481;48.796;9.210;2022-12-07T02:46:41;9.80;52.60
18703;DHT22;9481;48.796;9.210;2022-12-07T02:49:10;9.80;52.60
18703;DHT22;9481;48.796;9.210;2022-12-07T02:51:41;9.80;52.60
18703;DHT22;9481;48.796;9.210;2022-12-07T02:54:15;9.80;52.60
18703;DHT22;9481;48.796;9.210;2022-12-07T03:00:05;9.70;52.50
18703;DHT22;9481;48.796;9.210;2022-12-07T03:08:24;9.70;52.50
18703;DHT22;9481;48.796;9.210;2022-12-07T03:16:35;9.60;52.70
18703;DHT22;9481;48.796;9.210;2022-12-07T03:19:16;9.70;52.80
18703;DHT22;9481;48.796;9.210;2022-12-07T03:21:49;9.60;53.40
18703;DHT22;9481;48.796;9.210;2022-12-07T03:24:40;9.60;52.70
18703;DHT22;9481;48.796;9.210;2022-12-07T03:27:15;9.60;53.40
18703;DHT22;9481;48.796;9.210;2022-12-07T03:29:59;9.60;52.70
18703;DHT22;9481;48.796;9.210;2022-12-07T03:32:39;9.60;52.60
18703;DHT22;9481;48.796;9.210;2022-12-07T03:38:22;9.60;52.70
18703;DHT22;9481;48.796;9.210;2022-12-07T03:40:58;9.60;52.80
18703;DHT22;9481;48.796;9.210;2022-12-07T03:43:29;9.60;52.80
18703;DHT22;9481;48.796;9.210;2022-12-07T03:46:15;9.50;52.70
18703;DHT22;9481;48.796;9.210;2022-12-07T03:49:17;9.60;52.80
18703;DHT22;9481;48.796;9.210;2022-12-07T03:54:52;9.60;52.90
18703;DHT22;9481;48.796;9.210;2022-12-07T03:57:40;9.60;52.90
18703;DHT22;9481;48.796;9.210;2022-12-07T04:00:10;9.60;52.90
18703;DHT22;9481;48.796;9.210;2022-12-07T04:02:37;9.50;52.80
18703;DHT22;9481;48.796;9.210;2022-12-07T04:05:04;9.50;52.80
18703;DHT22;9481;48.796;9.210;2022-12-07T04:07:30;9.50;52.80
18703;DHT22;9481;48.796;9.210;2022-12-07T04:09:56;9.50;52.80
18703;DHT22;9481;48.796;9.210;2022-12-07T04:12:22;9.50;52.60
18703;DHT22;9481;48.796;9.210;2022-12-07T04:14:48;9.50;52.60
18703;DHT22;9481;48.796;9.210;2022-12-07T04:17:13;9.50;52.50
18703;DHT22;9481;48.796;9.210;2022-12-07T04:19:39;9.50;52.40
18703;DHT22;9481;48.796;9.210;2022-12-07T04:22:05;9.40;52.50
18703;DHT22;9481;48.796;9.210;2022-12-07T04:24:32;9.50;52.50
18703;DHT22;9481;48.796;9.210;2022-12-07T04:26:58;9.40;52.40
18703;DHT22;9481;48.796;9.210;2022-12-07T04:29:24;9.40;52.00
18703;DHT22;9481;48.796;9.210;2022-12-07T04:31:51;9.40;52.50
18703;DHT22;9481;48.796;9.210;2022-12-07T04:34:17;9.40;52.50
18703;DHT22;9481;48.796;9.210;2022-12-07T04:36:44;9.40;52.40
18703;DHT22;9481;48.796;9.210;2022-12-07T04:39:32;9.40;52.30
18703;DHT22;9481;48.796;9.210;2022-12-07T04:41:59;9.40;52.00
18703;DHT22;9481;48.796;9.210;2022-12-07T04:44:26;9.30;51.90
18703;DHT22;9481;48.796;9.210;2022-12-07T04:46:54;9.30;51.80
18703;DHT22;9481;48.796;9.210;2022-12-07T04:49:20;9.20;51.80
18703;DHT22;9481;48.796;9.210;2022-12-07T04:51:47;9.10;51.80
18703;DHT22;9481;48.796;9.210;2022-12-07T04:54:14;9.10;52.00
18703;DHT22;9481;48.796;9.210;2022-12-07T04:56:41;9.00;52.10
18703;DHT22;9481;48.796;9.210;2022-12-07T04:59:07;9.00;52.20
18703;DHT22;9481;48.796;9.210;2022-12-07T05:01:35;9.00;52.10
18703;DHT22;9481;48.796;9.210;2022-12-07T05:04:01;9.00;51.80
18703;DHT22;9481;48.796;9.210;2022-12-07T05:06:27;9.00;51.30
18703;DHT22;9481;48.796;9.210;2022-12-07T05:08:53;9.00;51.10
18703;DHT22;9481;48.796;9.210;2022-12-07T05:11:19;9.00;50.90
18703;DHT22;9481;48.796;9.210;2022-12-07T05:14:05;9.00;50.80
18703;DHT22;9481;48.796;9.210;2022-12-07T05:16:39;9.00;50.70
18703;DHT22;9481;48.796;9.210;2022-12-07T05:19:05;9.00;50.50
18703;DHT22;9481;48.796;9.210;2022-12-07T05:21:32;9.10;50.50
18703;DHT22;9481;48.796;9.210;2022-12-07T05:23:58;9.00;50.30
18703;DHT22;9481;48.796;9.210;2022-12-07T05:26:23;9.10;50.20
18703;DHT22;9481;48.796;9.210;2022-12-07T05:28:53;9.10;50.10
18703;DHT22;9481;48.796;9.210;2022-12-07T05:31:20;9.10;49.90
18703;DHT22;9481;48.796;9.210;2022-12-07T05:33:46;9.10;50.00
18703;DHT22;9481;48.796;9.210;2022-12-07T05:36:12;9.10;49.80
18703;DHT22;9481;48.796;9.210;2022-12-07T05:38:38;9.20;49.80
18703;DHT22;9481;48.796;9.210;2022-12-07T05:41:06;9.20;49.70
18703;DHT22;9481;48.796;9.210;2022-12-07T05:43:33;9.20;49.70
18703;DHT22;9481;48.796;9.210;2022-12-07T05:45:59;9.20;49.70
18703;DHT22;9481;48.796;9.210;2022-12-07T05:48:25;9.20;49.60
18703;DHT22;9481;48.796;9.210;2022-12-07T05:50:51;9.20;49.60
18703;DHT22;9481;48.796;9.210;2022-12-07T05:53:18;9.20;49.50
18703;DHT22;9481;48.796;9.210;2022-12-07T05:55:44;9.20;49.50
18703;DHT22;9481;48.796;9.210;2022-12-07T05:58:10;9.20;49.50
18703;DHT22;9481;48.796;9.210;2022-12-07T06:00:57;9.10;49.50
18703;DHT22;9481;48.796;9.210;2022-12-07T06:03:22;9.20;49.60
18703;DHT22;9481;48.796;9.210;2022-12-07T06:05:48;9.10;49.60
18703;DHT22;9481;48.796;9.210;2022-12-07T06:08:14;9.10;49.80
18703;DHT22;9481;48.796;9.210;2022-12-07T06:10:40;9.10;50.00
18703;DHT22;9481;48.796;9.210;2022-12-07T06:13:08;9.00;50.00
18703;DHT22;9481;48.796;9.210;2022-12-07T06:15:37;9.00;50.20
18703;DHT22;9481;48.796;9.210;2022-12-07T06:18:03;9.00;50.30
18703;DHT22;9481;48.796;9.210;2022-12-07T06:20:28;9.00;50.50
18703;DHT22;9481;48.796;9.210;2022-12-07T06:22:54;9.00;50.50
18703;DHT22;9481;48.796;9.210;2022-12-07T06:25:20;9.00;50.60
18703;DHT22;9481;48.796;9.210;2022-12-07T06:27:45;9.00;50.70
18703;DHT22;9481;48.796;9.210;2022-12-07T06:30:11;9.00;50.70
18703;DHT22;9481;48.796;9.210;2022-12-07T06:32:37;9.00;50.80
18703;DHT22;9481;48.796;9.210;2022-12-07T06:35:03;9.00;50.80
18703;DHT22;9481;48.796;9.210;2022-12-07T06:37:29;9.00;50.90
18703;DHT22;9481;48.796;9.210;2022-12-07T06:39:55;9.00;50.80
18703;DHT22;9481;48.796;9.210;2022-12-07T06:42:21;9.00;50.70
18703;DHT22;9481;48.796;9.210;2022-12-07T06:44:47;9.00;50.60
18703;DHT22;9481;48.796;9.210;2022-12-07T06:47:12;9.00;50.40
18703;DHT22;9481;48.796;9.210;2022-12-07T06:49:38;9.00;50.50
18703;DHT22;9481;48.796;9.210;2022-12-07T06:52:04;9.00;50.50
18703;DHT22;9481;48.796;9.210;2022-12-07T06:54:31;9.00;50.40
18703;DHT22;9481;48.796;9.210;2022-12-07T06:56:56;9.00;50.40
18703;DHT22;9481;48.796;9.210;2022-12-07T06:59:22;9.00;50.30
18703;DHT22;9481;48.796;9.210;2022-12-07T07:01:48;8.90;50.20
18703;DHT22;9481;48.796;9.210;2022-12-07T07:04:13;8.90;50.20
18703;DHT22;9481;48.796;9.210;2022-12-07T07:06:39;8.90;50.20
18703;DHT22;9481;48.796;9.210;2022-12-07T07:09:05;8.80;50.20
18703;DHT22;9481;48.796;9.210;2022-12-07T07:11:31;8.80;50.40
18703;DHT22;9481;48.796;9.210;2022-12-07T07:13:57;8.80;50.50
18703;DHT22;9481;48.796;9.210;2022-12-07T07:16:27;8.80;50.60
18703;DHT22;9481;48.796;9.210;2022-12-07T07:18:55;8.80;50.50
18703;DHT22;9481;48.796;9.210;2022-12-07T07:21:20;8.80;50.50
18703;DHT22;9481;48.796;9.210;2022-12-07T07:23:46;8.90;50.40
18703;DHT22;9481;48.796;9.210;2022-12-07T07:26:12;8.90;50.40
18703;DHT22;9481;48.796;9.210;2022-12-07T07:28:38;8.80;50.30
18703;DHT22;9481;48.796;9.210;2022-12-07T07:31:03;8.80;50.30
18703;DHT22;9481;48.796;9.210;2022-12-07T07:33:29;8.90;50.40
18703;DHT22;9481;48.796;9.210;2022-12-07T07:35:55;8.80;50.40
18703;DHT22;9481;48.796;9.210;2022-12-07T07:38:21;8.90;50.50
18703;DHT22;9481;48.796;9.210;2022-12-07T07:40:46;8.80;50.50
18703;DHT22;9481;48.796;9.210;2022-12-07T07:43:12;8.90;50.60
18703;DHT22;9481;48.796;9.210;2022-12-07T07:45:38;8.90;50.60
18703;DHT22;9481;48.796;9.210;2022-12-07T07:48:03;8.90;50.60
18703;DHT22;9481;48.796;9.210;2022-12-07T07:50:29;8.90;50.60
18703;DHT22;9481;48.796;9.210;2022-12-07T07:52:57;8.90;50.80
18703;DHT22;9481;48.796;9.210;2022-12-07T07:55:22;8.90;50.80
18703;DHT22;9481;48.796;9.210;2022-12-07T07:57:48;8.90;50.90
18703;DHT22;9481;48.796;9.210;2022-12-07T08:00:15;8.90;50.90
18703;DHT22;9481;48.796;9.210;2022-12-07T08:02:42;8.90;51.00
18703;DHT22;9481;48.796;9.210;2022-12-07T08:05:12;8.90;51.00
18703;DHT22;9481;48.796;9.210;2022-12-07T08:07:38;8.90;51.10
18703;DHT22;9481;48.796;9.210;2022-12-07T08:10:05;8.90;51.10
18703;DHT22;9481;48.796;9.210;2022-12-07T08:12:36;8.90;51.20
18703;DHT22;9481;48.796;9.210;2022-12-07T08:15:25;8.90;51.30
18703;DHT22;9481;48.796;9.210;2022-12-07T08:17:51;8.90;51.30
18703;DHT22;9481;48.796;9.210;2022-12-07T08:20:17;8.90;51.40
18703;DHT22;9481;48.796;9.210;2022-12-07T08:22:42;8.90;51.40
18703;DHT22;9481;48.796;9.210;2022-12-07T08:25:08;8.90;51.50
18703;DHT22;9481;48.796;9.210;2022-12-07T08:27:34;8.90;51.50
18703;DHT22;9481;48.796;9.210;2022-12-07T08:29:59;8.90;51.50
18703;DHT22;9481;48.796;9.210;2022-12-07T08:32:25;8.90;51.50
18703;DHT22;9481;48.796;9.210;2022-12-07T08:34:52;8.90;51.60
18703;DHT22;9481;48.796;9.210;2022-12-07T08:37:17;8.90;51.70
18703;DHT22;9481;48.796;9.210;2022-12-07T08:39:43;8.90;51.70
18703;DHT22;9481;48.796;9.210;2022-12-07T08:42:09;8.90;51.80
18703;DHT22;9481;48.796;9.210;2022-12-07T08:44:34;8.90;51.70
18703;DHT22;9481;48.796;9.210;2022-12-07T08:47:02;9.00;51.80
18703;DHT22;9481;48.796;9.210;2022-12-07T08:49:35;9.00;51.90
18703;DHT22;9481;48.796;9.210;2022-12-07T08:52:04;9.00;51.90
18703;DHT22;9481;48.796;9.210;2022-12-07T08:54:31;9.00;51.80
18703;DHT22;9481;48.796;9.210;2022-12-07T08:57:01;9.10;51.80
18703;DHT22;9481;48.796;9.210;2022-12-07T08:59:28;9.10;51.80
18703;DHT22;9481;48.796;9.210;2022-12-07T09:01:54;9.10;51.80
18703;DHT22;9481;48.796;9.210;2022-12-07T09:04:20;9.20;51.90
18703;DHT22;9481;48.796;9.210;2022-12-07T09:06:46;9.20;51.80
18703;DHT22;9481;48.796;9.210;2022-12-07T09:09:13;9.20;51.80
18703;DHT22;9481;48.796;9.210;2022-12-07T09:11:40;9.20;51.70
18703;DHT22;9481;48.796;9.210;2022-12-07T09:14:06;9.30;51.60
18703;DHT22;9481;48.796;9.210;2022-12-07T09:16:31;9.30;51.50
18703;DHT22;9481;48.796;9.210;2022-12-07T09:18:57;9.40;51.50
18703;DHT22;9481;48.796;9.210;2022-12-07T09:21:23;9.40;51.30
18703;DHT22;9481;48.796;9.210;2022-12-07T09:23:48;9.40;51.20
18703;DHT22;9481;48.796;9.210;2022-12-07T09:26:14;9.50;51.10
18703;DHT22;9481;48.796;9.210;2022-12-07T09:28:40;9.50;51.00
18703;DHT22;9481;48.796;9.210;2022-12-07T09:31:06;9.50;50.80
18703;DHT22;9481;48.796;9.210;2022-12-07T09:33:32;9.50;50.70
18703;DHT22;9481;48.796;9.210;2022-12-07T09:35:58;9.50;50.60
18703;DHT22;9481;48.796;9.210;2022-12-07T09:38:24;9.60;50.60
18703;DHT22;9481;48.796;9.210;2022-12-07T09:40:51;9.60;50.60
18703;DHT22;9481;48.796;9.210;2022-12-07T09:43:22;9.60;50.70
18703;DHT22;9481;48.796;9.210;2022-12-07T09:45:52;9.60;50.60
18703;DHT22;9481;48.796;9.210;2022-12-07T09:51:00;9.70;50.60
18703;DHT22;9481;48.796;9.210;2022-12-07T09:53:33;9.80;50.50
18703;DHT22;9481;48.796;9.210;2022-12-07T09:56:01;9.80;50.30
18703;DHT22;9481;48.796;9.210;2022-12-07T09:58:28;9.90;50.40
18703;DHT22;9481;48.796;9.210;2022-12-07T10:01:16;9.90;50.30
18703;DHT22;9481;48.796;9.210;2022-12-07T10:03:53;10.00;49.30
18703;DHT22;9481;48.796;9.210;2022-12-07T10:06:20;10.00;49.10
18703;DHT22;9481;48.796;9.210;2022-12-07T10:08:46;10.10;49.50
18703;DHT22;9481;48.796;9.210;2022-12-07T10:11:12;10.10;49.20
18703;DHT22;9481;48.796;9.210;2022-12-07T10:16:39;10.30;48.90
18703;DHT22;9481;48.796;9.210;2022-12-07T10:22:14;10.40;48.00
18703;DHT22;9481;48.796;9.210;2022-12-07T10:24:43;10.40;48.60
18703;DHT22;9481;48.796;9.210;2022-12-07T10:27:30;10.40;48.70
18703;DHT22;9481;48.796;9.210;2022-12-07T10:29:57;10.50;48.30
18703;DHT22;9481;48.796;9.210;2022-12-07T10:32:27;10.50;48.40
18703;DHT22;9481;48.796;9.210;2022-12-07T10:35:22;10.50;48.20
18703;DHT22;9481;48.796;9.210;2022-12-07T10:37:49;10.50;47.50
18703;DHT22;9481;48.796;9.210;2022-12-07T10:40:32;10.50;47.90
18703;DHT22;9481;48.796;9.210;2022-12-07T10:43:17;10.60;47.50
18703;DHT22;9481;48.796;9.210;2022-12-07T10:48:26;10.50;47.50
18703;DHT22;9481;48.796;9.210;2022-12-07T10:51:12;10.50;47.30
18703;DHT22;9481;48.796;9.210;2022-12-07T10:57:04;10.50;47.40
18703;DHT22;9481;48.796;9.210;2022-12-07T11:06:13;10.50;47.40
18703;DHT22;9481;48.796;9.210;2022-12-07T11:11:56;10.40;47.40
18703;DHT22;9481;48.796;9.210;2022-12-07T11:14:54;10.40;47.50
18703;DHT22;9481;48.796;9.210;2022-12-07T11:20:37;10.40;47.70
18703;DHT22;9481;48.796;9.210;2022-12-07T11:23:27;10.40;47.80
18703;DHT22;9481;48.796;9.210;2022-12-07T11:35:18;10.50;47.50
18703;DHT22;9481;48.796;9.210;2022-12-07T11:37:49;10.60;47.60
18703;DHT22;9481;48.796;9.210;2022-12-07T11:40:33;10.60;47.90
18703;DHT22;9481;48.796;9.210;2022-12-07T11:43:21;10.60;47.50
18703;DHT22;9481;48.796;9.210;2022-12-07T11:46:08;10.60;47.60
18703;DHT22;9481;48.796;9.210;2022-12-07T11:48:51;10.60;47.60
18703;DHT22;9481;48.796;9.210;2022-12-07T11:51:23;10.60;47.50
18703;DHT22;9481;48.796;9.210;2022-12-07T11:54:01;10.60;47.60
18703;DHT22;9481;48.796;9.210;2022-12-07T11:56:37;10.60;47.40
18703;DHT22;9481;48.796;9.210;2022-12-07T11:59:29;10.60;47.60
18703;DHT22;9481;48.796;9.210;2022-12-07T12:02:10;10.60;47.40
18703;DHT22;9481;48.796;9.210;2022-12-07T12:05:02;10.60;47.40
18703;DHT22;9481;48.796;9.210;2022-12-07T12:07:39;10.60;47.30
18703;DHT22;9481;48.796;9.210;2022-12-07T12:10:27;10.60;47.60
18703;DHT22;9481;48.796;9.210;2022-12-07T12:16:19;10.70;47.40
18703;DHT22;9481;48.796;9.210;2022-12-07T12:22:14;10.70;47.30
18703;DHT22;9481;48.796;9.210;2022-12-07T12:24:43;10.60;47.30
18703;DHT22;9481;48.796;9.210;2022-12-07T12:27:27;10.60;47.60
18703;DHT22;9481;48.796;9.210;2022-12-07T12:29:58;10.60;47.60
18703;DHT22;9481;48.796;9.210;2022-12-07T12:32:38;10.60;47.70
18703;DHT22;9481;48.796;9.210;2022-12-07T12:35:28;10.60;47.50
18703;DHT22;9481;48.796;9.210;2022-12-07T12:40:57;10.60;47.70
18703;DHT22;9481;48.796;9.210;2022-12-07T12:43:44;10.60;47.90
18703;DHT22;9481;48.796;9.210;2022-12-07T12:51:49;10.70;48.50
18703;DHT22;9481;48.796;9.210;2022-12-07T12:54:23;10.70;48.60
18703;DHT22;9481;48.796;9.210;2022-12-07T12:57:08;10.70;48.80
18703;DHT22;9481;48.796;9.210;2022-12-07T13:02:47;10.70;48.90
18703;DHT22;9481;48.796;9.210;2022-12-07T13:05:16;10.70;49.00
18703;DHT22;9481;48.796;9.210;2022-12-07T13:07:52;10.70;48.90
18703;DHT22;9481;48.796;9.210;2022-12-07T13:15:42;10.70;49.00
18703;DHT22;9481;48.796;9.210;2022-12-07T13:26:19;10.70;48.90
18703;DHT22;9481;48.796;9.210;2022-12-07T13:28:51;10.70;48.90
18703;DHT22;9481;48.796;9.210;2022-12-07T13:31:35;10.70;49.00
18703;DHT22;9481;48.796;9.210;2022-12-07T13:34:04;10.70;48.90
18703;DHT22;9481;48.796;9.210;2022-12-07T13:36:51;10.70;48.90
18703;DHT22;9481;48.796;9.210;2022-12-07T13:39:23;10.70;49.00
18703;DHT22;9481;48.796;9.210;2022-12-07T13:41:55;10.70;48.90
18703;DHT22;9481;48.796;9.210;2022-12-07T13:44:26;10.70;48.90
18703;DHT22;9481;48.796;9.210;2022-12-07T13:47:20;10.70;49.00
18703;DHT22;9481;48.796;9.210;2022-12-07T13:50:25;10.70;48.80
18703;DHT22;9481;48.796;9.210;2022-12-07T13:52:57;10.70;48.70
18703;DHT22;9481;48.796;9.210;2022-12-07T13:55:25;10.70;48.80
18703;DHT22;9481;48.796;9.210;2022-12-07T13:57:53;10.70;48.80
18703;DHT22;9481;48.796;9.210;2022-12-07T14:00:24;10.70;48.80
18703;DHT22;9481;48.796;9.210;2022-12-07T14:03:01;10.70;48.60
18703;DHT22;9481;48.796;9.210;2022-12-07T14:05:32;10.80;48.50
18703;DHT22;9481;48.796;9.210;2022-12-07T14:08:05;10.80;48.50
18703;DHT22;9481;48.796;9.210;2022-12-07T14:13:39;10.80;48.50
18703;DHT22;9481;48.796;9.210;2022-12-07T14:16:29;10.80;48.20
18703;DHT22;9481;48.796;9.210;2022-12-07T14:19:19;10.80;48.40
18703;DHT22;9481;48.796;9.210;2022-12-07T14:22:32;10.80;48.20
18703;DHT22;9481;48.796;9.210;2022-12-07T14:25:23;10.80;48.10
18703;DHT22;9481;48.796;9.210;2022-12-07T14:28:00;10.80;47.90
18703;DHT22;9481;48.796;9.210;2022-12-07T14:30:30;10.80;48.10
18703;DHT22;9481;48.796;9.210;2022-12-07T14:33:00;10.80;48.10
18703;DHT22;9481;48.796;9.210;2022-12-07T14:35:28;10.80;48.10
18703;DHT22;9481;48.796;9.210;2022-12-07T14:37:54;10.80;48.20
18703;DHT22;9481;48.796;9.210;2022-12-07T14:40:22;10.80;48.10
18703;DHT22;9481;48.796;9.210;2022-12-07T14:42:52;10.80;48.10
18703;DHT22;9481;48.796;9.210;2022-12-07T14:45:22;10.80;48.10
18703;DHT22;9481;48.796;9.210;2022-12-07T14:47:49;10.80;48.10
18703;DHT22;9481;48.796;9.210;2022-12-07T14:50:17;10.70;47.90
18703;DHT22;9481;48.796;9.210;2022-12-07T14:52:49;10.80;47.70
18703;DHT22;9481;48.796;9.210;2022-12-07T14:55:27;10.70;47.50
18703;DHT22;9481;48.796;9.210;2022-12-07T14:57:55;10.70;47.30
18703;DHT22;9481;48.796;9.210;2022-12-07T15:00:23;10.70;47.50
18703;DHT22;9481;48.796;9.210;2022-12-07T15:02:52;10.60;47.40
18703;DHT22;9481;48.796;9.210;2022-12-07T15:05:18;10.60;47.50
18703;DHT22;9481;48.796;9.210;2022-12-07T15:07:45;10.60;47.70
18703;DHT22;9481;48.796;9.210;2022-12-07T15:10:25;10.50;47.50
18703;DHT22;9481;48.796;9.210;2022-12-07T15:12:55;10.50;47.40
18703;DHT22;9481;48.796;9.210;2022-12-07T15:15:41;10.50;47.60
18703;DHT22;9481;48.796;9.210;2022-12-07T15:18:07;10.50;47.60
18703;DHT22;9481;48.796;9.210;2022-12-07T15:20:33;10.50;47.60
18703;DHT22;9481;48.796;9.210;2022-12-07T15:22:59;10.50;47.60
18703;DHT22;9481;48.796;9.210;2022-12-07T15:25:24;10.50;47.80
18703;DHT22;9481;48.796;9.210;2022-12-07T15:27:50;10.40;47.70
18703;DHT22;9481;48.796;9.210;2022-12-07T15:30:16;10.40;47.70
18703;DHT22;9481;48.796;9.210;2022-12-07T15:32:41;10.40;47.80
18703;DHT22;9481;48.796;9.210;2022-12-07T15:35:07;10.40;47.80
18703;DHT22;9481;48.796;9.210;2022-12-07T15:37:33;10.40;47.90
18703;DHT22;9481;48.796;9.210;2022-12-07T15:39:59;10.40;47.90
18703;DHT22;9481;48.796;9.210;2022-12-07T15:42:24;10.40;48.00
18703;DHT22;9481;48.796;9.210;2022-12-07T15:44:50;10.40;48.10
18703;DHT22;9481;48.796;9.210;2022-12-07T15:47:36;10.40;48.10
18703;DHT22;9481;48.796;9.210;2022-12-07T15:50:05;10.40;48.20
18703;DHT22;9481;48.796;9.210;2022-12-07T15:52:34;10.40;48.30
18703;DHT22;9481;48.796;9.210;2022-12-07T15:55:00;10.40;48.30
18703;DHT22;9481;48.796;9.210;2022-12-07T15:57:28;10.40;48.40
18703;DHT22;9481;48.796;9.210;2022-12-07T15:59:54;10.40;48.50
18703;DHT22;9481;48.796;9.210;2022-12-07T16:02:20;10.40;48.50
18703;DHT22;9481;48.796;9.210;2022-12-07T16:04:45;10.40;48.40
18703;DHT22;9481;48.796;9.210;2022-12-07T16:07:11;10.40;48.30
18703;DHT22;9481;48.796;9.210;2022-12-07T16:09:41;10.40;48.30
18703;DHT22;9481;48.796;9.210;2022-12-07T16:12:07;10.40;48.30
18703;DHT22;9481;48.796;9.210;2022-12-07T16:14:33;10.40;48.30
18703;DHT22;9481;48.796;9.210;2022-12-07T16:16:59;10.40;48.30
18703;DHT22;9481;48.796;9.210;2022-12-07T16:19:25;10.30;48.20
18703;DHT22;9481;48.796;9.210;2022-12-07T16:21:50;10.30;48.20
18703;DHT22;9481;48.796;9.210;2022-12-07T16:24:16;10.30;48.20
18703;DHT22;9481;48.796;9.210;2022-12-07T16:26:43;10.30;48.20
18703;DHT22;9481;48.796;9.210;2022-12-07T16:29:13;10.20;48.20
18703;DHT22;9481;48.796;9.210;2022-12-07T16:31:39;10.20;48.20
18703;DHT22;9481;48.796;9.210;2022-12-07T16:34:06;10.20;48.00
18703;DHT22;9481;48.796;9.210;2022-12-07T16:36:33;10.20;48.00
18703;DHT22;9481;48.796;9.210;2022-12-07T16:38:59;10.20;48.10
18703;DHT22;9481;48.796;9.210;2022-12-07T16:41:26;10.10;47.90
18703;DHT22;9481;48.796;9.210;2022-12-07T16:43:52;10.10;47.90
18703;DHT22;9481;48.796;9.210;2022-12-07T16:46:18;10.10;48.00
18703;DHT22;9481;48.796;9.210;2022-12-07T16:48:44;10.00;47.80
18703;DHT22;9481;48.796;9.210;2022-12-07T16:51:12;10.00;47.80
18703;DHT22;9481;48.796;9.210;2022-12-07T16:53:41;10.00;47.80
18703;DHT22;9481;48.796;9.210;2022-12-07T16:56:15;9.90;48.80
18703;DHT22;9481;48.796;9.210;2022-12-07T16:58:42;9.90;48.70
18703;DHT22;9481;48.796;9.210;2022-12-07T17:01:16;9.80;48.80
18703;DHT22;9481;48.796;9.210;2022-12-07T17:03:43;9.80;48.80
18703;DHT22;9481;48.796;9.210;2022-12-07T17:06:16;9.70;48.80
18703;DHT22;9481;48.796;9.210;2022-12-07T17:08:48;9.70;48.90
18703;DHT22;9481;48.796;9.210;2022-12-07T17:11:28;9.70;49.00
18703;DHT22;9481;48.796;9.210;2022-12-07T17:13:58;9.70;49.20
18703;DHT22;9481;48.796;9.210;2022-12-07T17:16:42;9.60;49.10
18703;DHT22;9481;48.796;9.210;2022-12-07T17:19:11;9.60;49.30
18703;DHT22;9481;48.796;9.210;2022-12-07T17:21:38;9.60;49.40
18703;DHT22;9481;48.796;9.210;2022-12-07T17:24:07;9.60;49.40
18703;DHT22;9481;48.796;9.210;2022-12-07T17:26:34;9.50;49.30
18703;DHT22;9481;48.796;9.210;2022-12-07T17:29:01;9.50;49.30
18703;DHT22;9481;48.796;9.210;2022-12-07T17:31:28;9.50;49.30
18703;DHT22;9481;48.796;9.210;2022-12-07T17:33:54;9.50;49.40
18703;DHT22;9481;48.796;9.210;2022-12-07T17:36:22;9.50;49.40
18703;DHT22;9481;48.796;9.210;2022-12-07T17:38:50;9.50;49.50
18703;DHT22;9481;48.796;9.210;2022-12-07T17:41:19;9.40;49.40
18703;DHT22;9481;48.796;9.210;2022-12-07T17:44:16;9.40;49.50
18703;DHT22;9481;48.796;9.210;2022-12-07T17:46:44;9.40;49.60
18703;DHT22;9481;48.796;9.210;2022-12-07T17:49:11;9.40;49.60
18703;DHT22;9481;48.796;9.210;2022-12-07T17:51:37;9.40;49.60
18703;DHT22;9481;48.796;9.210;2022-12-07T17:54:21;9.40;49.60
18703;DHT22;9481;48.796;9.210;2022-12-07T17:56:48;9.40;49.70
18703;DHT22;9481;48.796;9.210;2022-12-07T17:59:14;9.30;49.60
18703;DHT22;9481;48.796;9.210;2022-12-07T18:01:41;9.30;49.70
18703;DHT22;9481;48.796;9.210;2022-12-07T18:04:07;9.30;49.70